Time;durP1;ratioP1;P1;durP2;ratioP2;P2;SDS_P1;SDS_P2;PMS_P1;PMS_P2;Temp;Humidity;BMP_temperature;BMP_pressure;BME280_temperature;BME280_humidity;BME280_pressure;Samples;Min_cycle;Max_cycle;Signal;HPM_P1;HPM_P2
2021/06/15 00:02:00;;;;;;;7.82;3.55;;;18.10;1.00;;;;;;6171593;23;20048;-67
2021/06/15 00:04:48;;;;;;;6.70;3.70;;;18.10;1.00;;;;;;6166489;23;20025;-66
2021/06/15 00:07:37;;;;;;;7.72;4.03;;;18.20;1.00;;;;;;6176696;23;20103;-67
2021/06/15 00:10:27;;;;;;;7.07;4.13;;;18.10;1.00;;;;;;6173848;23;20021;-68
2021/06/15 00:13:16;;;;;;;8.75;4.47;;;18.20;1.00;;;;;;6155604;23;20092;-67
2021/06/15 00:16:05;;;;;;;7.68;4.00;;;18.10;1.00;;;;;;6171735;23;20362;-67
2021/06/15 00:18:54;;;;;;;5.90;4.10;;;18.10;1.00;;;;;;6173711;23;20029;-67
2021/06/15 00:21:42;;;;;;;4.70;3.90;;;18.10;1.00;;;;;;6173298;23;20024;-67
2021/06/15 00:24:30;;;;;;;4.65;3.80;;;18.00;1.00;;;;;;6156048;23;20095;-67
2021/06/15 00:27:20;;;;;;;6.10;3.83;;;18.10;1.00;;;;;;6174114;23;20048;-67
2021/06/15 00:30:12;;;;;;;5.72;3.55;;;18.10;1.00;;;;;;6166165;23;20124;-65
2021/06/15 00:33:00;;;;;;;4.10;3.22;;;18.20;1.00;;;;;;6157081;23;20032;-65
2021/06/15 00:35:49;;;;;;;6.43;3.78;;;18.30;1.00;;;;;;6175084;23;20025;-66
2021/06/15 00:38:37;;;;;;;6.55;3.40;;;18.20;1.00;;;;;;6176164;23;20028;-67
2021/06/15 00:41:25;;;;;;;4.78;3.97;;;17.90;1.00;;;;;;6172614;23;20025;-66
2021/06/15 00:44:16;;;;;;;8.65;4.65;;;17.90;1.00;;;;;;6135391;23;20028;-68
2021/06/15 00:47:05;;;;;;;8.32;4.22;;;18.10;1.00;;;;;;6175285;23;20021;-66
2021/06/15 00:49:55;;;;;;;5.90;3.85;;;18.20;1.00;;;;;;6134421;23;20028;-66
2021/06/15 00:52:44;;;;;;;5.53;4.22;;;18.30;1.00;;;;;;6164101;23;20377;-66
2021/06/15 00:55:33;;;;;;;5.57;3.83;;;18.20;1.00;;;;;;6151310;23;20028;-67
2021/06/15 00:58:22;;;;;;;5.25;4.22;;;18.10;1.00;;;;;;6153539;23;20036;-65
2021/06/15 01:01:12;;;;;;;6.28;4.13;;;17.80;1.00;;;;;;6151687;23;20028;-65
2021/06/15 01:04:06;;;;;;;7.20;4.73;;;17.60;1.00;;;;;;6131451;23;20158;-66
2021/06/15 01:07:04;;;;;;;6.53;4.65;;;17.60;1.00;;;;;;6166530;23;20331;-67
2021/06/15 01:09:58;;;;;;;5.93;4.20;;;17.60;1.00;;;;;;6154136;23;20031;-66
2021/06/15 01:12:49;;;;;;;5.93;4.60;;;17.40;1.00;;;;;;6141951;23;20029;-67
2021/06/15 01:15:43;;;;;;;8.55;4.80;;;17.40;1.50;;;;;;6151546;23;20021;-67
2021/06/15 01:18:36;;;;;;;8.50;4.90;;;17.40;1.50;;;;;;6175236;23;20047;-66
2021/06/15 01:21:27;;;;;;;7.85;4.88;;;17.30;1.50;;;;;;6132811;23;20021;-66
2021/06/15 01:24:29;;;;;;;8.85;4.80;;;17.30;1.70;;;;;;6134024;23;20601;-67
2021/06/15 01:27:39;;;;;;;10.75;5.38;;;17.30;2.10;;;;;;6153062;23;20548;-66
2021/06/15 01:30:34;;;;;;;7.90;4.78;;;17.30;2.20;;;;;;6152620;23;20055;-65
2021/06/15 01:33:23;;;;;;;5.97;4.22;;;17.20;2.30;;;;;;6155220;23;20026;-65
2021/06/15 01:36:16;;;;;;;6.60;4.93;;;17.10;3.30;;;;;;6150321;23;20025;-66
2021/06/15 01:39:11;;;;;;;7.25;4.80;;;17.00;4.00;;;;;;6151149;23;20029;-66
2021/06/15 01:42:07;;;;;;;8.03;5.13;;;16.90;4.20;;;;;;6174205;23;20507;-66
2021/06/15 01:45:04;;;;;;;7.85;4.88;;;16.90;4.40;;;;;;6142246;23;20025;-66
2021/06/15 01:48:05;;;;;;;8.20;4.82;;;16.90;4.70;;;;;;6153551;23;20440;-67
2021/06/15 01:50:56;;;;;;;8.98;5.38;;;16.80;5.00;;;;;;6152209;23;20021;-67
2021/06/15 01:53:49;;;;;;;5.78;4.85;;;16.70;5.50;;;;;;6133244;23;20021;-67
2021/06/15 01:56:44;;;;;;;7.20;6.00;;;16.60;6.30;;;;;;6153922;23;20067;-65
2021/06/15 01:59:37;;;;;;;11.80;6.13;;;16.70;5.90;;;;;;6154033;23;20107;-66
2021/06/15 02:02:31;;;;;;;7.20;5.93;;;16.70;5.50;;;;;;6141478;23;20310;-66
2021/06/15 02:05:26;;;;;;;9.10;6.15;;;16.80;5.00;;;;;;6129681;23;20590;-64
2021/06/15 02:08:22;;;;;;;13.27;6.13;;;16.90;3.50;;;;;;6157255;23;20471;-66
2021/06/15 02:11:11;;;;;;;9.55;6.28;;;16.80;3.20;;;;;;6176833;23;20014;-66
2021/06/15 02:14:29;;;;;;;9.27;5.32;;;16.90;1.90;;;;;;6147126;23;20459;-66
2021/06/15 02:17:47;;;;;;;8.50;5.00;;;17.10;1.00;;;;;;6154203;23;20025;-66
2021/06/15 02:21:08;;;;;;;7.47;5.18;;;17.10;1.00;;;;;;6156683;23;20152;-66
2021/06/15 02:24:00;;;;;;;5.70;4.93;;;17.00;1.00;;;;;;6134946;23;20029;-66
2021/06/15 02:26:52;;;;;;;11.23;5.50;;;16.90;1.00;;;;;;6153908;23;20025;-66
2021/06/15 02:29:41;;;;;;;7.68;4.70;;;16.70;1.00;;;;;;6176609;23;20139;-66
2021/06/15 02:32:33;;;;;;;7.80;5.00;;;16.70;1.00;;;;;;6124664;23;20021;-66
2021/06/15 02:35:25;;;;;;;7.32;5.18;;;16.60;1.00;;;;;;6150170;23;20029;-65
2021/06/15 02:38:20;;;;;;;7.18;5.03;;;16.60;1.00;;;;;;6155979;23;20029;-65
2021/06/15 02:41:12;;;;;;;10.50;5.78;;;16.50;1.00;;;;;;6176258;23;20044;-65
2021/06/15 02:44:04;;;;;;;10.45;5.85;;;16.40;1.00;;;;;;6136484;23;20024;-65
2021/06/15 02:46:57;;;;;;;8.15;5.22;;;16.40;1.00;;;;;;6153928;23;20032;-65
2021/06/15 02:49:51;;;;;;;7.63;4.72;;;16.40;1.00;;;;;;6157211;23;20105;-65
2021/06/15 02:52:47;;;;;;;9.13;4.80;;;16.40;1.00;;;;;;6146052;23;20037;-66
2021/06/15 02:55:41;;;;;;;9.13;5.13;;;16.60;1.00;;;;;;6131942;23;20025;-66
2021/06/15 02:58:33;;;;;;;9.23;5.00;;;16.50;1.00;;;;;;6134022;23;20096;-66
2021/06/15 03:01:25;;;;;;;8.52;5.20;;;16.50;1.00;;;;;;6154735;23;20241;-66
2021/06/15 03:04:19;;;;;;;9.02;5.72;;;16.40;1.00;;;;;;6136305;23;20135;-66
2021/06/15 03:07:07;;;;;;;8.98;5.22;;;16.50;1.00;;;;;;6175227;23;20032;-66
2021/06/15 03:09:58;;;;;;;11.02;5.97;;;16.40;1.00;;;;;;6153081;23;20533;-67
2021/06/15 03:12:59;;;;;;;11.82;6.38;;;16.40;1.00;;;;;;6137523;23;20025;-66
2021/06/15 03:15:52;;;;;;;10.65;6.45;;;16.30;1.00;;;;;;6151056;23;20354;-66
2021/06/15 03:18:52;;;;;;;8.52;5.88;;;16.30;1.00;;;;;;6173443;23;20039;-66
2021/06/15 03:21:44;;;;;;;;;;;16.40;1.00;;;;;;6155430;23;20044;-66
2021/06/15 03:24:37;;;;;;;9.38;5.30;;;16.40;1.00;;;;;;6136027;23;19927;-66
2021/06/15 03:27:32;;;;;;;10.18;5.97;;;16.60;1.00;;;;;;6152683;23;20029;-65
2021/06/15 03:30:23;;;;;;;9.77;6.07;;;16.50;1.00;;;;;;6151966;23;20032;-65
2021/06/15 03:33:16;;;;;;;11.43;5.97;;;16.60;1.00;;;;;;6172691;23;20096;-66
2021/06/15 03:36:07;;;;;;;7.95;5.60;;;16.60;1.00;;;;;;6151851;23;20025;-64
2021/06/15 03:38:58;;;;;;;9.90;6.93;;;16.80;1.00;;;;;;6174929;23;20028;-65
2021/06/15 03:41:47;;;;;;;10.32;5.55;;;16.70;1.00;;;;;;6177962;23;20131;-67
2021/06/15 03:44:37;;;;;;;7.82;5.47;;;17.60;1.00;;;;;;6142801;23;20028;-66
2021/06/15 03:47:27;;;;;;;12.57;6.20;;;18.10;1.00;;;;;;6175125;23;20053;-66
2021/06/15 03:50:17;;;;;;;6.40;4.72;;;18.80;1.00;;;;;;6176133;23;20028;-65
2021/06/15 03:53:09;;;;;;;5.55;4.57;;;19.10;1.00;;;;;;6172144;23;20025;-67
2021/06/15 03:55:59;;;;;;;5.97;4.60;;;19.20;1.00;;;;;;6173039;23;20020;-66
2021/06/15 03:58:49;;;;;;;8.50;5.20;;;19.60;1.00;;;;;;6175849;23;20020;-65
2021/06/15 04:01:41;;;;;;;8.77;4.78;;;20.20;1.00;;;;;;6174368;23;20044;-67
2021/06/15 04:04:34;;;;;;;7.70;5.40;;;20.20;1.00;;;;;;6157847;23;20031;-66
2021/06/15 04:07:25;;;;;;;8.40;5.30;;;20.40;1.00;;;;;;6175873;23;20532;-66
2021/06/15 04:10:16;;;;;;;8.43;5.05;;;20.20;1.00;;;;;;6175790;23;20485;-66
2021/06/15 04:13:06;;;;;;;7.75;5.15;;;20.70;1.00;;;;;;6170489;23;20065;-66
2021/06/15 04:15:56;;;;;;;7.55;5.00;;;20.40;1.00;;;;;;6147293;23;20025;-65
2021/06/15 04:18:48;;;;;;;7.35;4.65;;;20.80;1.00;;;;;;6175281;23;20439;-65
2021/06/15 04:21:43;;;;;;;7.07;5.00;;;20.80;1.00;;;;;;6174602;23;20020;-67
2021/06/15 04:24:32;;;;;;;;;;;21.30;1.00;;;;;;6157861;23;20064;-66
2021/06/15 04:27:25;;;;;;;7.63;4.90;;;22.70;1.00;;;;;;6176724;23;19916;-66
2021/06/15 04:30:19;;;;;;;10.10;5.07;;;22.50;1.00;;;;;;6173647;23;20489;-66
2021/06/15 04:33:10;;;;;;;10.13;5.15;;;22.80;1.00;;;;;;6170145;23;20382;-66
2021/06/15 04:36:05;;;;;;;8.15;4.75;;;23.30;1.00;;;;;;6169995;23;20025;-66
2021/06/15 04:38:59;;;;;;;8.85;5.15;;;22.70;1.00;;;;;;6153472;23;20096;-66
2021/06/15 04:41:57;;;;;;;9.97;4.90;;;22.60;1.00;;;;;;6175955;23;20029;-66
2021/06/15 04:44:48;;;;;;;8.75;4.63;;;23.00;1.00;;;;;;6139718;23;20035;-67
2021/06/15 04:47:42;;;;;;;8.00;3.83;;;23.60;1.00;;;;;;6172921;23;20036;-67
2021/06/15 04:50:32;;;;;;;5.65;4.30;;;23.20;1.00;;;;;;6175311;23;20053;-66
2021/06/15 04:53:22;;;;;;;11.57;4.70;;;23.50;1.00;;;;;;6168394;23;20466;-67
2021/06/15 04:56:12;;;;;;;6.07;4.00;;;23.20;1.00;;;;;;6171734;23;20092;-67
2021/06/15 04:59:02;;;;;;;15.07;6.15;;;23.40;1.00;;;;;;6174603;23;20076;-66
2021/06/15 05:01:51;;;;;;;11.60;4.57;;;23.30;1.00;;;;;;6172907;23;20028;-66
2021/06/15 05:04:40;;;;;;;6.38;4.10;;;23.40;1.00;;;;;;6157645;23;20156;-66
2021/06/15 05:07:30;;;;;;;6.68;4.13;;;24.20;1.00;;;;;;6173971;23;20088;-66
2021/06/15 05:10:21;;;;;;;7.40;3.65;;;24.20;1.00;;;;;;6175511;23;20059;-66
2021/06/15 05:13:11;;;;;;;10.05;4.32;;;24.00;1.00;;;;;;6166987;23;20017;-66
2021/06/15 05:16:00;;;;;;;8.48;3.72;;;23.90;1.00;;;;;;6170282;23;20025;-66
2021/06/15 05:18:48;;;;;;;5.28;3.45;;;23.40;1.00;;;;;;6173213;23;20095;-66
2021/06/15 05:21:42;;;;;;;5.30;3.80;;;23.50;1.00;;;;;;6171971;23;20052;-67
2021/06/15 05:24:49;;;;;;;8.68;3.80;;;24.20;1.00;;;;;;6158793;23;20354;-66
2021/06/15 05:27:39;;;;;;;7.13;3.72;;;24.10;1.00;;;;;;6174456;23;20107;-66
2021/06/15 05:30:29;;;;;;;9.30;4.22;;;24.90;1.00;;;;;;6175223;23;20079;-67
2021/06/15 05:33:17;;;;;;;5.90;4.32;;;24.70;1.00;;;;;;6167981;23;20021;-66
2021/06/15 05:36:06;;;;;;;7.53;3.90;;;24.10;1.00;;;;;;6170338;23;20075;-66
2021/06/15 05:38:55;;;;;;;8.65;4.25;;;24.80;1.00;;;;;;6173057;23;20485;-67
2021/06/15 05:41:43;;;;;;;8.15;3.97;;;24.80;1.00;;;;;;6172425;23;20056;-66
2021/06/15 05:44:33;;;;;;;5.75;4.00;;;24.00;1.00;;;;;;6156568;23;20197;-67
2021/06/15 05:47:21;;;;;;;10.30;4.38;;;24.40;1.00;;;;;;6173359;23;20077;-66
2021/06/15 05:50:11;;;;;;;8.88;3.60;;;23.70;1.00;;;;;;6173356;23;20180;-66
2021/06/15 05:52:59;;;;;;;5.63;3.95;;;24.20;1.00;;;;;;6171234;23;20065;-66
2021/06/15 05:55:49;;;;;;;12.02;4.25;;;24.00;1.00;;;;;;6166114;23;20021;-66
2021/06/15 05:58:37;;;;;;;6.85;3.53;;;24.20;1.00;;;;;;6174870;23;20032;-65
2021/06/15 06:01:27;;;;;;;8.27;3.85;;;24.50;1.00;;;;;;6174176;23;20079;-66
2021/06/15 06:04:19;;;;;;;12.13;4.25;;;24.10;1.00;;;;;;6135997;23;20017;-66
2021/06/15 06:10:14;;;;;;;10.70;4.03;;;21.90;1.00;;;;;;6173318;23;20025;-67
2021/06/15 06:13:05;;;;;;;7.32;3.95;;;22.10;1.00;;;;;;6144467;23;20145;-65
2021/06/15 06:15:57;;;;;;;5.32;3.60;;;22.40;1.00;;;;;;6159728;23;20474;-67
2021/06/15 06:18:47;;;;;;;6.05;3.22;;;22.70;1.00;;;;;;6173090;23;20060;-67
2021/06/15 06:21:36;;;;;;;7.47;3.83;;;23.10;1.00;;;;;;6172534;23;20357;-66
2021/06/15 06:24:24;;;;;;;6.07;3.25;;;22.80;1.00;;;;;;6156781;23;20021;-67
2021/06/15 06:27:13;;;;;;;5.05;3.63;;;23.00;1.00;;;;;;6161317;23;20049;-67
2021/06/15 06:30:01;;;;;;;7.18;3.20;;;23.00;1.00;;;;;;6173105;23;20031;-66
2021/06/15 06:32:51;;;;;;;6.60;3.95;;;22.90;1.00;;;;;;6168807;23;20026;-66
2021/06/15 06:35:40;;;;;;;9.45;3.45;;;23.00;1.00;;;;;;6161355;23;20103;-67
2021/06/15 06:38:29;;;;;;;7.63;3.15;;;23.00;1.00;;;;;;6154127;23;20053;-66
2021/06/15 06:41:18;;;;;;;5.68;3.70;;;24.10;1.00;;;;;;6174140;23;20053;-68
2021/06/15 06:44:07;;;;;;;7.28;3.60;;;24.10;1.00;;;;;;6156116;23;20025;-68
2021/06/15 06:46:58;;;;;;;8.95;3.88;;;23.80;1.00;;;;;;6167949;23;20481;-67
2021/06/15 06:49:47;;;;;;;10.18;3.58;;;22.70;1.00;;;;;;6172415;23;20029;-67
2021/06/15 06:52:37;;;;;;;6.90;3.92;;;23.10;1.00;;;;;;6147456;23;20148;-67
2021/06/15 06:55:28;;;;;;;8.00;3.97;;;23.30;1.00;;;;;;6164147;23;20052;-66
2021/06/15 06:58:17;;;;;;;5.47;3.30;;;23.10;1.00;;;;;;6176042;23;20159;-66
2021/06/15 07:01:05;;;;;;;8.50;3.53;;;23.10;1.00;;;;;;6177917;23;20084;-67
2021/06/15 07:03:54;;;;;;;6.88;3.63;;;22.80;1.00;;;;;;6158300;23;20029;-67
2021/06/15 07:06:42;;;;;;;9.38;3.90;;;23.10;1.00;;;;;;6173271;23;20096;-67
2021/06/15 07:09:32;;;;;;;16.38;4.63;;;23.20;1.00;;;;;;6174428;23;20458;-67
2021/06/15 07:12:20;;;;;;;7.90;3.38;;;23.50;1.00;;;;;;6170051;23;20028;-67
2021/06/15 07:15:10;;;;;;;7.72;3.50;;;23.60;1.00;;;;;;6164376;23;20021;-67
2021/06/15 07:17:58;;;;;;;7.32;4.32;;;23.70;1.00;;;;;;6173460;23;20141;-67
2021/06/15 07:20:47;;;;;;;6.03;3.70;;;23.60;1.00;;;;;;6176432;23;20096;-67
2021/06/15 07:23:36;;;;;;;7.05;3.65;;;23.80;1.00;;;;;;6169186;23;20024;-65
2021/06/15 07:26:25;;;;;;;7.18;3.65;;;24.30;1.00;;;;;;6171462;23;20796;-67
2021/06/15 07:29:14;;;;;;;6.15;3.47;;;23.70;1.00;;;;;;6175864;23;20032;-66
2021/06/15 07:32:02;;;;;;;7.72;3.70;;;24.20;1.00;;;;;;6176105;23;20070;-67
2021/06/15 07:34:51;;;;;;;9.02;3.80;;;24.30;1.00;;;;;;6163183;23;20033;-67
2021/06/15 07:37:39;;;;;;;7.05;3.28;;;24.20;1.00;;;;;;6172944;23;20494;-68
2021/06/15 07:40:28;;;;;;;9.43;4.10;;;24.20;1.00;;;;;;6173859;23;20029;-66
2021/06/15 07:43:17;;;;;;;8.95;3.50;;;24.20;1.00;;;;;;6171095;23;20107;-66
2021/06/15 07:46:06;;;;;;;5.85;3.83;;;23.90;1.00;;;;;;6165033;23;20036;-66
2021/06/15 07:48:54;;;;;;;7.35;3.72;;;24.20;1.00;;;;;;6174606;23;20031;-67
2021/06/15 07:51:43;;;;;;;9.70;3.95;;;24.80;1.00;;;;;;6175437;23;20096;-67
2021/06/15 07:54:51;;;;;;;6.90;3.67;;;24.80;1.00;;;;;;6164983;23;20477;-66
2021/06/15 07:57:39;;;;;;;6.68;3.55;;;24.10;1.00;;;;;;6174239;23;20025;-67
2021/06/15 08:00:29;;;;;;;6.13;3.95;;;24.60;1.00;;;;;;6176572;23;20025;-66
2021/06/15 08:03:18;;;;;;;9.15;3.78;;;24.70;1.00;;;;;;6167008;23;20441;-66
2021/06/15 08:06:06;;;;;;;8.40;3.75;;;25.10;1.00;;;;;;6163762;23;20032;-67
2021/06/15 08:08:55;;;;;;;5.57;3.40;;;24.80;1.00;;;;;;6175306;23;20048;-66
2021/06/15 08:11:43;;;;;;;8.35;3.60;;;25.00;1.00;;;;;;6175212;23;20107;-67
2021/06/15 08:14:32;;;;;;;10.23;3.47;;;25.20;1.00;;;;;;6166747;23;20071;-66
2021/06/15 08:17:22;;;;;;;4.88;3.63;;;25.00;1.00;;;;;;6169432;23;20025;-67
2021/06/15 08:20:12;;;;;;;7.05;3.05;;;25.40;1.00;;;;;;6174094;23;20025;-65
2021/06/15 08:23:00;;;;;;;5.60;3.35;;;25.40;1.00;;;;;;6148305;23;20529;-66
2021/06/15 08:25:49;;;;;;;6.95;3.55;;;25.30;1.00;;;;;;6141711;23;20028;-67
2021/06/15 08:28:38;;;;;;;8.68;3.13;;;25.40;1.00;;;;;;6173313;23;20033;-67
2021/06/15 08:31:26;;;;;;;7.22;2.80;;;25.40;1.00;;;;;;6178035;23;20422;-67
2021/06/15 08:34:17;;;;;;;5.53;2.95;;;24.90;1.00;;;;;;6159154;23;20540;-66
2021/06/15 08:37:05;;;;;;;5.90;3.00;;;25.20;1.00;;;;;;6170403;23;20031;-66
2021/06/15 08:39:53;;;;;;;5.28;2.97;;;25.50;1.00;;;;;;6175146;23;20021;-67
2021/06/15 08:42:42;;;;;;;7.68;3.00;;;25.20;1.00;;;;;;6170674;23;20401;-68
2021/06/15 08:45:31;;;;;;;6.30;2.92;;;25.40;1.00;;;;;;6138702;23;20021;-66
2021/06/15 08:48:21;;;;;;;4.93;2.65;;;25.40;1.00;;;;;;6173921;23;20029;-66
2021/06/15 08:51:10;;;;;;;5.70;2.53;;;25.60;1.00;;;;;;6173458;23;20095;-67
2021/06/15 08:54:03;;;;;;;7.47;3.05;;;25.40;1.00;;;;;;6159194;23;20127;-67
2021/06/15 08:56:52;;;;;;;5.45;2.70;;;25.50;1.00;;;;;;6148690;23;20638;-66
2021/06/15 08:59:40;;;;;;;6.45;3.35;;;25.80;1.00;;;;;;6172950;23;20048;-66
2021/06/15 09:02:29;;;;;;;5.25;3.00;;;25.70;1.00;;;;;;6168934;23;20911;-67
2021/06/15 09:05:19;;;;;;;5.53;3.13;;;25.70;1.00;;;;;;6159542;23;20017;-67
2021/06/15 09:08:10;;;;;;;5.95;2.60;;;26.10;1.00;;;;;;6173703;23;20092;-67
2021/06/15 09:11:05;;;;;;;9.65;2.83;;;26.10;1.00;;;;;;6174213;23;20402;-67
2021/06/15 09:13:54;;;;;;;7.53;2.55;;;25.90;1.00;;;;;;6165019;23;20421;-67
2021/06/15 09:16:46;;;;;;;4.25;2.40;;;26.00;1.00;;;;;;6170760;23;20075;-67
2021/06/15 09:19:38;;;;;;;6.03;2.75;;;26.10;1.00;;;;;;6154663;23;20107;-67
2021/06/15 09:22:29;;;;;;;5.85;2.80;;;26.40;1.00;;;;;;6167426;23;20044;-67
2021/06/15 09:25:22;;;;;;;5.00;2.58;;;26.30;1.00;;;;;;6160552;23;20518;-67
2021/06/15 09:28:19;;;;;;;6.10;2.78;;;26.40;1.00;;;;;;6174815;23;20489;-67
2021/06/15 09:31:10;;;;;;;4.97;2.70;;;26.40;1.00;;;;;;6174992;23;20470;-67
2021/06/15 09:33:59;;;;;;;5.20;2.58;;;26.40;1.00;;;;;;6162211;23;20033;-68
2021/06/15 09:36:52;;;;;;;6.20;2.40;;;27.00;1.00;;;;;;6171038;23;20075;-68
2021/06/15 09:39:41;;;;;;;3.83;2.78;;;27.00;1.00;;;;;;6171003;23;20032;-66
2021/06/15 09:42:31;;;;;;;5.75;2.72;;;27.00;1.00;;;;;;6168760;23;20029;-68
2021/06/15 09:45:20;;;;;;;3.20;2.72;;;26.90;1.00;;;;;;6161257;23;20036;-68
2021/06/15 09:48:24;;;;;;;8.73;2.58;;;27.00;1.00;;;;;;6153720;23;20116;-67
2021/06/15 09:51:13;;;;;;;5.40;2.95;;;27.00;1.00;;;;;;6175205;23;20048;-68
2021/06/15 09:54:02;;;;;;;4.43;2.15;;;27.10;1.00;;;;;;6159168;23;20083;-67
2021/06/15 09:56:57;;;;;;;3.60;2.25;;;27.40;1.00;;;;;;6172107;23;20025;-68
2021/06/15 10:00:01;;;;;;;5.90;2.60;;;27.30;1.00;;;;;;6173598;23;20037;-67
2021/06/15 10:02:54;;;;;;;4.18;2.30;;;27.20;1.00;;;;;;6166488;23;20083;-67
2021/06/15 10:05:43;;;;;;;6.82;2.75;;;27.30;1.00;;;;;;6159026;23;20108;-66
2021/06/15 10:08:46;;;;;;;3.45;2.33;;;28.10;1.00;;;;;;6175933;23;20068;-67
2021/06/15 10:11:45;;;;;;;6.32;2.85;;;28.00;1.00;;;;;;6173513;23;20458;-67
2021/06/15 10:14:37;;;;;;;2.72;2.28;;;27.70;1.00;;;;;;6155283;23;20092;-67
2021/06/15 10:17:28;;;;;;;6.95;2.80;;;27.70;1.00;;;;;;6170221;23;20025;-67
2021/06/15 10:20:19;;;;;;;2.63;2.03;;;27.70;1.00;;;;;;6172819;23;20461;-66
2021/06/15 10:23:07;;;;;;;5.32;2.38;;;27.80;1.00;;;;;;6147803;23;20575;-66
2021/06/15 10:25:58;;;;;;;5.15;2.30;;;27.50;1.00;;;;;;6157309;23;20153;-67
2021/06/15 10:28:46;;;;;;;8.05;2.30;;;27.60;1.00;;;;;;6178866;23;20056;-67
2021/06/15 10:31:36;;;;;;;4.65;2.38;;;27.80;1.00;;;;;;6175216;23;20025;-67
2021/06/15 10:34:57;;;;;;;3.20;2.50;;;27.80;1.00;;;;;;6155675;23;20433;-68
2021/06/15 10:37:47;;;;;;;4.47;2.10;;;27.80;1.00;;;;;;6171824;23;20554;-67
2021/06/15 10:40:52;;;;;;;4.00;2.10;;;28.00;1.00;;;;;;6176826;23;20029;-67
2021/06/15 10:43:45;;;;;;;3.92;1.80;;;27.90;1.00;;;;;;6170589;23;20080;-67
2021/06/15 10:46:39;;;;;;;3.65;2.10;;;28.20;1.00;;;;;;6173118;23;20020;-67
2021/06/15 10:49:27;;;;;;;3.10;2.03;;;27.80;1.00;;;;;;6174043;23;20509;-67
2021/06/15 10:52:17;;;;;;;2.60;1.83;;;28.10;1.00;;;;;;6172405;23;20091;-67
2021/06/15 10:55:40;;;;;;;2.72;1.73;;;27.70;1.00;;;;;;6162044;23;20021;-67
2021/06/15 10:59:09;;;;;;;3.80;2.03;;;27.70;1.00;;;;;;6175176;23;20025;-67
2021/06/15 11:02:10;;;;;;;3.13;2.00;;;28.20;1.00;;;;;;6173648;23;20076;-67
2021/06/15 11:04:59;;;;;;;3.72;2.13;;;27.60;1.00;;;;;;6162526;23;20031;-66
2021/06/15 11:07:48;;;;;;;2.72;1.95;;;28.10;1.00;;;;;;6171561;23;20454;-67
2021/06/15 11:10:44;;;;;;;3.72;2.10;;;27.70;1.00;;;;;;6155483;23;20029;-68
2021/06/15 11:13:45;;;;;;;2.13;1.70;;;28.00;1.00;;;;;;6126809;23;20324;-65
2021/06/15 11:16:35;;;;;;;3.50;1.90;;;28.10;1.00;;;;;;6150771;23;20412;-68
2021/06/15 11:19:39;;;;;;;3.13;1.83;;;28.20;1.00;;;;;;6175924;23;20056;-67
2021/06/15 11:22:29;;;;;;;2.15;1.63;;;28.20;1.00;;;;;;6167690;23;20043;-67
2021/06/15 11:25:45;;;;;;;5.25;2.72;;;28.10;1.00;;;;;;6162629;23;20021;-67
2021/06/15 11:28:42;;;;;;;4.68;2.20;;;28.10;1.00;;;;;;6175894;23;20352;-68
2021/06/15 11:31:40;;;;;;;3.60;1.80;;;28.20;1.00;;;;;;6154370;23;20025;-70
2021/06/15 11:34:29;;;;;;;2.30;1.95;;;28.10;1.00;;;;;;6113739;23;20840;-69
2021/06/15 11:37:19;;;;;;;5.60;2.25;;;28.10;1.00;;;;;;6170117;23;20092;-67
2021/06/15 11:40:21;;;;;;;5.85;1.92;;;28.30;1.00;;;;;;6177037;23;20025;-67
2021/06/15 11:43:23;;;;;;;3.97;2.00;;;28.20;1.00;;;;;;6168273;23;20028;-67
2021/06/15 11:46:13;;;;;;;4.95;2.20;;;28.60;1.00;;;;;;6141095;23;20506;-67
2021/06/15 11:49:21;;;;;;;4.57;1.95;;;28.40;1.00;;;;;;6177427;23;20052;-66
2021/06/15 11:52:10;;;;;;;5.20;1.95;;;28.60;1.00;;;;;;6173254;23;20462;-67
2021/06/15 11:54:59;;;;;;;2.53;1.70;;;28.40;1.00;;;;;;6143480;23;20032;-67
2021/06/15 11:57:59;;;;;;;3.60;1.80;;;28.70;1.00;;;;;;6150771;23;20031;-67
2021/06/15 12:00:49;;;;;;;4.22;1.85;;;28.90;1.00;;;;;;6175180;23;20096;-66
2021/06/15 12:03:39;;;;;;;1.23;1.13;;;29.00;1.00;;;;;;6169386;23;20029;-66
2021/06/15 12:06:29;;;;;;;3.53;1.58;;;28.80;1.00;;;;;;6165535;23;20021;-68
2021/06/15 12:09:17;;;;;;;4.93;1.55;;;28.90;1.00;;;;;;6134148;23;20029;-66
2021/06/15 12:12:07;;;;;;;1.13;1.00;;;28.60;1.00;;;;;;6176127;23;20638;-65
2021/06/15 12:14:57;;;;;;;2.08;1.48;;;28.50;1.00;;;;;;6151965;23;20025;-66
2021/06/15 12:17:48;;;;;;;2.63;1.30;;;28.70;1.00;;;;;;6151616;23;20028;-67
2021/06/15 12:20:39;;;;;;;2.60;1.50;;;28.20;1.00;;;;;;6172876;23;20029;-68
2021/06/15 12:23:31;;;;;;;4.00;1.60;;;28.40;1.00;;;;;;6171788;23;20048;-66
2021/06/15 12:26:24;;;;;;;2.50;1.42;;;28.80;1.00;;;;;;6167118;23;20099;-67
2021/06/15 12:29:15;;;;;;;3.57;1.70;;;29.10;1.00;;;;;;6173911;23;20057;-67
2021/06/15 12:32:05;;;;;;;2.90;1.20;;;28.80;1.00;;;;;;6154156;23;20063;-67
2021/06/15 12:34:53;;;;;;;1.95;1.30;;;28.80;1.00;;;;;;6161681;23;20044;-68
2021/06/15 12:37:42;;;;;;;2.13;1.25;;;28.60;1.00;;;;;;6173461;23;20505;-67
2021/06/15 12:40:31;;;;;;;2.97;1.30;;;28.40;1.00;;;;;;6173690;23;20481;-67
2021/06/15 12:43:23;;;;;;;1.95;1.52;;;29.10;1.00;;;;;;6168540;23;20029;-67
2021/06/15 12:46:21;;;;;;;3.30;1.30;;;29.30;1.00;;;;;;6160802;23;20160;-66
2021/06/15 12:49:19;;;;;;;2.13;1.30;;;29.60;1.00;;;;;;6151881;23;20025;-67
2021/06/15 12:52:10;;;;;;;2.53;1.10;;;28.60;1.00;;;;;;6174401;23;20736;-69
2021/06/15 12:55:09;;;;;;;2.92;1.00;;;28.70;1.00;;;;;;6161708;23;20028;-69
2021/06/15 12:58:00;;;;;;;4.22;1.42;;;28.80;1.00;;;;;;6174136;23;20059;-69
2021/06/15 13:00:49;;;;;;;1.35;0.98;;;28.90;1.00;;;;;;6132651;23;20358;-67
2021/06/15 13:03:37;;;;;;;1.55;1.20;;;28.80;1.00;;;;;;6168741;23;20773;-67
2021/06/15 13:06:29;;;;;;;3.13;1.60;;;29.30;1.00;;;;;;6159880;23;20140;-68
2021/06/15 13:09:18;;;;;;;1.98;1.60;;;29.30;1.00;;;;;;6175149;23;20032;-66
2021/06/15 13:12:08;;;;;;;4.60;1.52;;;29.40;1.00;;;;;;6175393;23;20481;-68
2021/06/15 13:14:59;;;;;;;3.25;1.70;;;29.30;1.00;;;;;;6159078;23;20051;-69
2021/06/15 13:17:55;;;;;;;3.85;2.20;;;29.20;1.00;;;;;;6171434;23;20455;-67
2021/06/15 13:20:44;;;;;;;2.25;1.63;;;29.30;1.00;;;;;;6150492;23;20028;-67
2021/06/15 13:23:34;;;;;;;2.10;1.40;;;29.30;1.00;;;;;;6167397;23;20100;-66
2021/06/15 13:26:23;;;;;;;3.60;1.60;;;29.00;1.00;;;;;;6139808;23;20025;-67
2021/06/15 13:29:11;;;;;;;2.70;1.25;;;28.90;1.00;;;;;;6173800;23;20099;-68
2021/06/15 13:32:15;;;;;;;4.18;1.33;;;29.40;1.00;;;;;;6174656;23;20472;-68
2021/06/15 13:35:23;;;;;;;2.13;1.58;;;30.10;1.00;;;;;;6160792;23;20088;-70
2021/06/15 13:38:17;;;;;;;3.25;1.50;;;29.60;1.00;;;;;;6171304;23;20437;-68
2021/06/15 13:41:07;;;;;;;2.35;1.38;;;29.60;1.00;;;;;;6172766;23;20521;-70
2021/06/15 13:43:56;;;;;;;2.88;1.40;;;29.70;1.00;;;;;;6142250;23;20025;-68
2021/06/15 13:46:44;;;;;;;3.20;1.40;;;29.80;1.00;;;;;;6121565;23;20029;-69
2021/06/15 13:49:33;;;;;;;2.20;1.40;;;29.60;1.00;;;;;;6172475;23;20371;-68
2021/06/15 13:52:22;;;;;;;2.25;1.35;;;29.30;1.00;;;;;;6144848;23;20485;-68
2021/06/15 13:55:11;;;;;;;2.25;1.30;;;29.30;1.00;;;;;;6160199;23;20067;-68
2021/06/15 13:58:06;;;;;;;3.25;1.55;;;29.40;1.00;;;;;;6149612;23;20049;-70
2021/06/15 14:00:54;;;;;;;;;;;29.50;1.00;;;;;;6171981;23;20110;-68
2021/06/15 14:03:48;;;;;;;3.75;1.50;;;29.50;1.00;;;;;;6168592;23;19948;-69
2021/06/15 14:06:36;;;;;;;1.30;1.20;;;29.50;1.00;;;;;;6140910;23;20122;-69
2021/06/15 14:09:25;;;;;;;4.05;1.58;;;29.40;1.00;;;;;;6174642;23;20244;-70
2021/06/15 14:12:14;;;;;;;2.35;1.60;;;29.50;1.00;;;;;;6171674;23;20029;-68
2021/06/15 14:15:05;;;;;;;2.25;1.40;;;29.10;1.00;;;;;;6163734;23;20029;-68
2021/06/15 14:17:55;;;;;;;2.80;1.23;;;29.70;1.00;;;;;;6170933;23;20100;-68
2021/06/15 14:20:43;;;;;;;4.07;1.50;;;29.70;1.00;;;;;;6174422;23;20371;-70
2021/06/15 14:23:32;;;;;;;8.43;2.03;;;30.00;1.00;;;;;;6170049;23;20021;-69
2021/06/15 14:26:20;;;;;;;1.90;1.20;;;30.00;1.00;;;;;;6164770;23;20036;-69
2021/06/15 14:29:09;;;;;;;2.67;1.30;;;29.50;1.00;;;;;;6173728;23;20079;-68
2021/06/15 14:31:59;;;;;;;1.80;1.30;;;29.40;1.00;;;;;;6175549;23;20025;-69
2021/06/15 14:34:48;;;;;;;4.97;1.40;;;29.50;1.00;;;;;;6160279;23;20029;-68
2021/06/15 14:37:38;;;;;;;3.55;1.25;;;29.90;1.00;;;;;;6152418;23;20017;-69
2021/06/15 14:40:27;;;;;;;1.92;1.20;;;30.10;1.00;;;;;;6152221;23;20027;-68
2021/06/15 14:43:16;;;;;;;2.05;1.20;;;29.90;1.00;;;;;;6147435;23;20049;-70
2021/06/15 14:46:04;;;;;;;4.07;1.30;;;30.00;1.00;;;;;;6164218;23;20528;-70
2021/06/15 14:48:54;;;;;;;2.83;1.40;;;29.80;1.00;;;;;;6172218;23;20040;-69
2021/06/15 14:51:43;;;;;;;2.08;1.40;;;30.00;1.00;;;;;;6175569;23;20036;-67
2021/06/15 14:54:32;;;;;;;3.13;1.67;;;29.40;1.00;;;;;;6140944;23;20070;-68
2021/06/15 14:57:20;;;;;;;2.38;1.80;;;29.50;1.00;;;;;;6148965;23;20028;-68
2021/06/15 15:00:11;;;;;;;1.67;1.45;;;29.40;1.00;;;;;;6173603;23;20478;-69
2021/06/15 15:03:06;;;;;;;3.35;1.40;;;29.80;1.00;;;;;;6167371;23;20024;-68
2021/06/15 15:05:56;;;;;;;2.20;1.50;;;29.80;1.00;;;;;;6122262;23;20032;-68
2021/06/15 15:08:44;;;;;;;4.88;1.73;;;29.60;1.00;;;;;;6172327;23;20040;-69
2021/06/15 15:11:33;;;;;;;2.97;1.50;;;29.70;1.00;;;;;;6174799;23;20100;-69